Time;durP1;ratioP1;P1;durP2;ratioP2;P2;SDS_P1;SDS_P2;PMS_P1;PMS_P2;Temp;Humidity;BMP_temperature;BMP_pressure;BME280_temperature;BME280_humidity;BME280_pressure;Samples;Min_cycle;Max_cycle;Signal;HPM_P1;HPM_P2
2023/06/03 00:00:40;;;;;;;1.48;1.00;;;;;;;;;;5106059;28;20051;-62
2023/06/03 00:03:11;;;;;;;3.40;1.40;;;;;;;;;;5101844;28;20524;-63
2023/06/03 00:05:39;;;;;;;2.55;1.10;;;;;;;;;;5104380;28;20053;-62
2023/06/03 00:08:06;;;;;;;2.47;1.05;;;;;;;;;;5108819;28;20043;-62
2023/06/03 00:10:33;;;;;;;2.40;1.20;;;;;;;;;;5108199;28;20051;-62
2023/06/03 00:13:02;;;;;;;3.60;0.98;;;;;;;;;;5104711;28;20047;-62
2023/06/03 00:15:29;;;;;;;2.25;1.10;;;;;;;;;;5104891;28;20048;-63
2023/06/03 00:17:56;;;;;;;2.13;0.90;;;;;;;;;;5108584;28;20518;-62
2023/06/03 00:20:25;;;;;;;6.53;1.55;;;;;;;;;;5105554;28;20046;-62
2023/06/03 00:22:52;;;;;;;1.65;0.90;;;;;;;;;;5106634;27;20055;-63
2023/06/03 00:25:19;;;;;;;2.25;1.00;;;;;;;;;;5105313;28;20048;-63
2023/06/03 00:27:49;;;;;;;1.13;0.80;;;;;;;;;;5102210;28;20136;-62
2023/06/03 00:30:17;;;;;;;3.60;0.98;;;;;;;;;;5101627;28;20047;-62
2023/06/03 00:32:45;;;;;;;1.27;0.80;;;;;;;;;;5103295;28;20075;-62
2023/06/03 00:35:12;;;;;;;1.83;0.95;;;;;;;;;;5102960;28;20503;-62
2023/06/03 00:37:39;;;;;;;2.92;1.20;;;;;;;;;;5108466;28;20047;-62
2023/06/03 00:40:07;;;;;;;3.63;1.00;;;;;;;;;;5106704;28;20051;-62
2023/06/03 00:42:34;;;;;;;2.03;0.85;;;;;;;;;;5108174;28;20079;-62
2023/06/03 00:45:02;;;;;;;3.35;1.00;;;;;;;;;;5106336;28;20048;-62
2023/06/03 00:47:30;;;;;;;2.40;1.10;;;;;;;;;;5108892;28;20046;-62
2023/06/03 00:49:58;;;;;;;2.80;0.82;;;;;;;;;;5107070;28;20403;-62
2023/06/03 00:52:25;;;;;;;3.92;1.38;;;;;;;;;;5108466;28;20511;-62
2023/06/03 00:54:53;;;;;;;1.83;0.77;;;;;;;;;;5102137;28;20047;-63
2023/06/03 00:57:21;;;;;;;1.55;0.88;;;;;;;;;;5108854;28;20044;-63
2023/06/03 00:59:49;;;;;;;1.05;0.70;;;;;;;;;;5103828;28;20144;-62
2023/06/03 01:02:17;;;;;;;5.25;1.35;;;;;;;;;;5098521;28;20108;-63
2023/06/03 01:04:47;;;;;;;1.65;0.90;;;;;;;;;;5106852;28;20052;-61
2023/06/03 01:07:18;;;;;;;3.33;0.90;;;;;;;;;;5099453;28;20086;-62
2023/06/03 01:09:53;;;;;;;2.55;0.98;;;;;;;;;;5109465;28;20051;-62
2023/06/03 01:12:24;;;;;;;1.77;0.90;;;;;;;;;;5102016;28;20047;-62
2023/06/03 01:14:53;;;;;;;2.10;0.93;;;;;;;;;;5103326;28;20047;-63
2023/06/03 01:17:21;;;;;;;2.13;0.98;;;;;;;;;;5099289;28;20407;-62
2023/06/03 01:19:52;;;;;;;1.42;0.80;;;;;;;;;;5102643;28;20563;-62
2023/06/03 01:22:20;;;;;;;1.92;0.90;;;;;;;;;;5101338;28;20341;-62
2023/06/03 01:24:50;;;;;;;2.97;0.80;;;;;;;;;;5106089;28;20471;-62
2023/06/03 01:27:18;;;;;;;1.48;0.80;;;;;;;;;;5084999;28;20437;-62
2023/06/03 01:29:46;;;;;;;2.80;0.75;;;;;;;;;;5100937;28;20078;-62
2023/06/03 01:32:14;;;;;;;2.42;0.88;;;;;;;;;;5095843;28;20047;-62
2023/06/03 01:34:42;;;;;;;1.27;0.60;;;;;;;;;;5105462;28;20085;-62
2023/06/03 01:37:09;;;;;;;2.35;1.00;;;;;;;;;;5107352;28;20396;-62
2023/06/03 01:39:39;;;;;;;0.93;0.73;;;;;;;;;;5102057;28;20051;-62
2023/06/03 01:42:08;;;;;;;4.20;0.90;;;;;;;;;;5100831;28;20070;-62
2023/06/03 01:44:36;;;;;;;2.38;1.13;;;;;;;;;;5084747;28;20052;-62
2023/06/03 01:47:04;;;;;;;2.03;0.80;;;;;;;;;;5107142;28;20190;-62
2023/06/03 01:49:31;;;;;;;1.17;0.88;;;;;;;;;;5085811;28;20043;-61
2023/06/03 01:51:59;;;;;;;1.58;0.80;;;;;;;;;;5097108;28;20448;-62
2023/06/03 01:54:26;;;;;;;0.98;0.70;;;;;;;;;;5105025;28;20406;-62
2023/06/03 01:56:53;;;;;;;3.25;0.88;;;;;;;;;;5111675;28;20371;-62
2023/06/03 01:59:23;;;;;;;1.63;0.80;;;;;;;;;;5107492;27;20039;-62
2023/06/03 02:01:51;;;;;;;2.40;0.82;;;;;;;;;;5102560;27;20055;-62
2023/06/03 02:04:18;;;;;;;1.13;0.90;;;;;;;;;;5105300;28;20446;-62
2023/06/03 02:06:49;;;;;;;0.88;0.70;;;;;;;;;;5109071;28;20047;-62
2023/06/03 02:09:16;;;;;;;1.40;0.75;;;;;;;;;;5111187;27;20505;-62
2023/06/03 02:11:44;;;;;;;1.92;0.90;;;;;;;;;;5100211;28;20083;-62
2023/06/03 02:14:11;;;;;;;1.27;1.00;;;;;;;;;;5106638;28;20040;-62
2023/06/03 02:16:41;;;;;;;1.88;0.93;;;;;;;;;;5103983;28;20048;-62
2023/06/03 02:19:12;;;;;;;1.45;0.70;;;;;;;;;;5106765;28;20051;-62
2023/06/03 02:21:40;;;;;;;1.70;0.90;;;;;;;;;;5111206;28;20678;-62
2023/06/03 02:24:08;;;;;;;5.63;0.85;;;;;;;;;;5107817;28;20052;-61
2023/06/03 02:26:36;;;;;;;0.98;0.60;;;;;;;;;;5090506;28;20062;-62
2023/06/03 02:29:03;;;;;;;1.45;0.70;;;;;;;;;;5112206;28;20073;-62
2023/06/03 02:31:31;;;;;;;0.60;0.60;;;;;;;;;;5110407;28;20069;-62
2023/06/03 02:34:00;;;;;;;1.48;0.70;;;;;;;;;;5104949;28;20055;-62
2023/06/03 02:36:27;;;;;;;1.92;0.90;;;;;;;;;;5105350;28;20076;-61
2023/06/03 02:38:54;;;;;;;2.42;0.90;;;;;;;;;;5109171;28;20065;-62
2023/06/03 02:41:21;;;;;;;1.48;0.90;;;;;;;;;;5087163;28;20059;-62
2023/06/03 02:43:49;;;;;;;1.42;0.80;;;;;;;;;;5108668;28;20078;-61
2023/06/03 02:46:16;;;;;;;1.20;0.70;;;;;;;;;;5091575;28;20055;-62
2023/06/03 02:48:43;;;;;;;1.00;0.82;;;;;;;;;;5106773;28;20046;-62
2023/06/03 02:51:12;;;;;;;1.60;0.88;;;;;;;;;;5105657;28;20051;-62
2023/06/03 02:53:39;;;;;;;1.02;0.70;;;;;;;;;;5111868;27;20044;-62
2023/06/03 02:56:06;;;;;;;1.25;0.70;;;;;;;;;;5109227;28;20097;-62
2023/06/03 02:58:33;;;;;;;1.90;0.60;;;;;;;;;;5105933;28;20604;-62
2023/06/03 03:01:01;;;;;;;1.00;0.60;;;;;;;;;;5100558;28;20058;-62
2023/06/03 03:03:28;;;;;;;1.65;0.70;;;;;;;;;;5104919;27;20059;-62
2023/06/03 03:05:56;;;;;;;1.13;0.70;;;;;;;;;;5108121;28;20058;-62
2023/06/03 03:08:25;;;;;;;1.85;0.75;;;;;;;;;;5107036;28;20050;-63
2023/06/03 03:10:52;;;;;;;1.63;0.90;;;;;;;;;;5106155;28;20052;-62
2023/06/03 03:13:19;;;;;;;1.65;0.80;;;;;;;;;;5110402;28;20491;-62
2023/06/03 03:15:47;;;;;;;1.52;1.00;;;;;;;;;;5106376;27;20044;-63
2023/06/03 03:18:14;;;;;;;1.58;0.80;;;;;;;;;;5109659;28;20054;-62
2023/06/03 03:20:41;;;;;;;0.93;0.63;;;;;;;;;;5107783;27;20511;-63
2023/06/03 03:23:08;;;;;;;2.00;1.05;;;;;;;;;;5095225;28;20052;-62
2023/06/03 03:25:37;;;;;;;0.93;0.68;;;;;;;;;;5109694;28;20052;-62
2023/06/03 03:28:05;;;;;;;1.45;0.70;;;;;;;;;;5108984;28;20043;-63
2023/06/03 03:30:32;;;;;;;1.05;0.70;;;;;;;;;;5111651;27;20511;-62
2023/06/03 03:33:00;;;;;;;4.15;0.82;;;;;;;;;;5109891;28;20048;-62
2023/06/03 03:35:28;;;;;;;1.00;0.70;;;;;;;;;;5109566;28;20611;-62
2023/06/03 03:38:00;;;;;;;1.30;0.70;;;;;;;;;;5107456;28;20043;-62
2023/06/03 03:40:28;;;;;;;1.13;0.63;;;;;;;;;;5106097;28;20127;-62
2023/06/03 03:42:58;;;;;;;3.13;0.98;;;;;;;;;;5107038;28;20044;-61
2023/06/03 03:45:27;;;;;;;2.00;0.70;;;;;;;;;;5101433;28;20054;-62
2023/06/03 03:47:57;;;;;;;1.70;0.70;;;;;;;;;;5104946;28;20048;-62
2023/06/03 03:50:39;;;;;;;1.00;0.70;;;;;;;;;;5107290;28;20047;-62
2023/06/03 03:53:07;;;;;;;1.23;0.70;;;;;;;;;;5106306;28;20054;-61
2023/06/03 03:55:39;;;;;;;4.53;0.90;;;;;;;;;;5105648;28;20050;-62
2023/06/03 03:58:14;;;;;;;1.02;0.70;;;;;;;;;;5108533;28;20063;-62
2023/06/03 04:00:43;;;;;;;1.95;0.80;;;;;;;;;;5102748;28;20568;-62
2023/06/03 04:03:10;;;;;;;1.73;0.65;;;;;;;;;;5106827;28;20483;-62
2023/06/03 04:05:38;;;;;;;1.73;0.82;;;;;;;;;;5091365;28;20047;-62
2023/06/03 04:08:05;;;;;;;1.75;0.90;;;;;;;;;;5110874;28;20058;-62
2023/06/03 04:10:33;;;;;;;1.27;0.65;;;;;;;;;;5098003;28;20463;-62
2023/06/03 04:13:00;;;;;;;1.58;0.90;;;;;;;;;;5094259;28;20043;-62
2023/06/03 04:15:31;;;;;;;1.48;0.70;;;;;;;;;;5104501;28;20054;-61
2023/06/03 04:18:00;;;;;;;1.98;0.70;;;;;;;;;;5107341;28;20388;-62
2023/06/03 04:20:40;;;;;;;2.00;0.60;;;;;;;;;;5109456;28;20051;-62
2023/06/03 04:23:14;;;;;;;1.35;0.70;;;;;;;;;;5106482;28;20086;-62
2023/06/03 04:25:43;;;;;;;1.95;1.02;;;;;;;;;;5107984;28;20055;-62
2023/06/03 04:28:10;;;;;;;1.27;0.85;;;;;;;;;;5100738;28;20072;-62
2023/06/03 04:30:39;;;;;;;2.65;0.88;;;;;;;;;;5106670;28;20104;-62
2023/06/03 04:33:06;;;;;;;3.35;0.70;;;;;;;;;;5107091;28;20379;-62
2023/06/03 04:35:34;;;;;;;1.52;0.80;;;;;;;;;;5110494;28;20429;-62
2023/06/03 04:38:01;;;;;;;2.17;0.80;;;;;;;;;;5103293;28;20063;-62
2023/06/03 04:40:29;;;;;;;1.55;0.77;;;;;;;;;;5103508;28;20035;-61
2023/06/03 04:42:56;;;;;;;1.58;0.75;;;;;;;;;;5106848;28;20486;-62
2023/06/03 04:45:23;;;;;;;1.08;0.65;;;;;;;;;;5092130;28;20124;-62
2023/06/03 04:47:58;;;;;;;1.10;0.70;;;;;;;;;;5101688;28;20048;-62
2023/06/03 04:50:27;;;;;;;1.10;0.70;;;;;;;;;;5106097;28;20062;-62
2023/06/03 04:52:56;;;;;;;1.45;0.80;;;;;;;;;;5106640;28;20104;-62
2023/06/03 04:55:25;;;;;;;2.50;0.73;;;;;;;;;;5104673;28;20443;-62
2023/06/03 04:57:53;;;;;;;3.88;0.90;;;;;;;;;;5107269;28;20052;-62
2023/06/03 05:00:22;;;;;;;1.98;0.70;;;;;;;;;;5107498;28;20147;-62
2023/06/03 05:02:54;;;;;;;1.55;0.70;;;;;;;;;;5098583;28;20052;-63
2023/06/03 05:05:24;;;;;;;1.37;0.80;;;;;;;;;;5101264;28;20495;-62
2023/06/03 05:07:51;;;;;;;2.70;0.90;;;;;;;;;;5104323;28;20059;-62
2023/06/03 05:10:19;;;;;;;2.75;0.70;;;;;;;;;;5102633;28;20546;-62
2023/06/03 05:12:46;;;;;;;1.23;0.70;;;;;;;;;;5100295;28;20052;-62
2023/06/03 05:15:14;;;;;;;2.83;0.77;;;;;;;;;;5103520;28;20059;-62
2023/06/03 05:17:41;;;;;;;1.98;0.85;;;;;;;;;;5100929;28;20525;-62
2023/06/03 05:20:10;;;;;;;1.20;0.70;;;;;;;;;;5107763;28;20499;-62
2023/06/03 05:22:39;;;;;;;1.20;0.73;;;;;;;;;;5100819;28;20044;-62
2023/06/03 05:25:07;;;;;;;2.85;0.80;;;;;;;;;;5093062;28;20406;-62
2023/06/03 05:27:34;;;;;;;1.25;0.70;;;;;;;;;;5108964;28;20490;-62
2023/06/03 05:30:01;;;;;;;1.35;0.77;;;;;;;;;;5115596;27;20051;-62
2023/06/03 05:32:29;;;;;;;2.55;0.82;;;;;;;;;;5109954;28;20051;-62
2023/06/03 05:34:56;;;;;;;1.90;0.90;;;;;;;;;;5100829;28;20070;-61
2023/06/03 05:37:23;;;;;;;1.85;0.80;;;;;;;;;;5111241;28;20044;-62
2023/06/03 05:39:52;;;;;;;1.60;0.60;;;;;;;;;;5112899;28;20043;-62
2023/06/03 05:42:19;;;;;;;1.58;0.75;;;;;;;;;;5095399;28;20055;-62
2023/06/03 05:44:46;;;;;;;1.13;0.73;;;;;;;;;;5111192;28;20055;-62
2023/06/03 05:47:14;;;;;;;1.15;0.75;;;;;;;;;;5111233;28;20057;-62
2023/06/03 05:49:41;;;;;;;1.42;0.70;;;;;;;;;;5106203;28;20505;-62
2023/06/03 05:52:08;;;;;;;1.52;0.70;;;;;;;;;;5111945;28;20040;-62
2023/06/03 05:54:35;;;;;;;2.35;0.80;;;;;;;;;;5108800;28;20046;-62
2023/06/03 05:57:04;;;;;;;1.20;0.63;;;;;;;;;;5105742;28;20056;-62
2023/06/03 05:59:31;;;;;;;1.92;0.70;;;;;;;;;;5111180;27;20048;-62
2023/06/03 06:01:59;;;;;;;1.27;0.70;;;;;;;;;;5107824;28;20051;-62
2023/06/03 06:04:26;;;;;;;1.58;0.75;;;;;;;;;;5107825;27;20116;-62
2023/06/03 06:06:53;;;;;;;1.48;0.63;;;;;;;;;;5097192;28;20051;-62
2023/06/03 06:09:20;;;;;;;3.72;0.60;;;;;;;;;;5109970;28;20048;-62
2023/06/03 06:11:48;;;;;;;1.55;0.77;;;;;;;;;;5104822;28;20048;-62
2023/06/03 06:14:16;;;;;;;1.25;0.60;;;;;;;;;;5106842;28;20044;-62
2023/06/03 06:16:44;;;;;;;1.42;0.50;;;;;;;;;;5110623;28;20060;-62
2023/06/03 06:19:11;;;;;;;2.65;0.80;;;;;;;;;;5105979;28;20039;-62
2023/06/03 06:21:38;;;;;;;1.60;0.55;;;;;;;;;;5107338;28;20154;-62
2023/06/03 06:24:05;;;;;;;1.05;0.63;;;;;;;;;;5097402;28;20044;-62
2023/06/03 06:26:33;;;;;;;0.90;0.52;;;;;;;;;;5106159;28;20051;-62
2023/06/03 06:29:01;;;;;;;1.50;0.70;;;;;;;;;;5113026;27;20399;-62
2023/06/03 06:31:30;;;;;;;0.82;0.50;;;;;;;;;;5102288;27;20062;-62
2023/06/03 06:33:59;;;;;;;1.13;0.70;;;;;;;;;;5108605;28;20047;-61
2023/06/03 06:36:30;;;;;;;1.70;0.80;;;;;;;;;;5111158;28;20062;-62
2023/06/03 06:38:58;;;;;;;1.95;0.90;;;;;;;;;;5111318;28;20079;-61
2023/06/03 06:41:28;;;;;;;1.10;0.68;;;;;;;;;;5111515;28;20047;-63
2023/06/03 06:43:56;;;;;;;1.35;0.80;;;;;;;;;;5105252;28;20058;-62
2023/06/03 06:46:24;;;;;;;1.13;0.70;;;;;;;;;;5107767;28;20054;-62
2023/06/03 06:48:53;;;;;;;1.35;0.70;;;;;;;;;;5110022;28;20075;-62
2023/06/03 06:51:20;;;;;;;1.38;0.70;;;;;;;;;;5110817;28;20040;-62
2023/06/03 06:53:49;;;;;;;1.40;0.60;;;;;;;;;;5105485;27;20047;-62
2023/06/03 06:56:16;;;;;;;0.82;0.60;;;;;;;;;;5109320;28;20050;-63
2023/06/03 06:58:44;;;;;;;1.10;0.52;;;;;;;;;;5106329;28;20063;-62
2023/06/03 07:01:11;;;;;;;1.67;0.63;;;;;;;;;;5101564;28;20487;-62
2023/06/03 07:03:38;;;;;;;1.05;0.70;;;;;;;;;;5101279;28;20050;-62
2023/06/03 07:06:07;;;;;;;0.95;0.60;;;;;;;;;;5106526;28;20047;-63
2023/06/03 07:08:34;;;;;;;0.80;0.47;;;;;;;;;;5087316;28;20064;-62
2023/06/03 07:11:02;;;;;;;0.85;0.63;;;;;;;;;;5109100;28;20044;-62
2023/06/03 07:13:29;;;;;;;1.70;0.70;;;;;;;;;;5107603;28;21043;-62
2023/06/03 07:15:57;;;;;;;0.80;0.52;;;;;;;;;;5107096;28;20044;-62
2023/06/03 07:18:25;;;;;;;1.30;0.75;;;;;;;;;;5103799;28;20048;-62
2023/06/03 07:20:53;;;;;;;1.10;0.65;;;;;;;;;;5108715;28;20441;-62
2023/06/03 07:23:23;;;;;;;1.35;0.60;;;;;;;;;;5107479;28;20581;-62
2023/06/03 07:25:51;;;;;;;1.48;0.70;;;;;;;;;;5108404;28;20400;-62
2023/06/03 07:28:19;;;;;;;2.25;0.77;;;;;;;;;;5097583;27;20049;-62
2023/06/03 07:30:49;;;;;;;1.33;0.82;;;;;;;;;;5109614;27;20671;-62
2023/06/03 07:33:27;;;;;;;1.42;0.63;;;;;;;;;;5110291;28;20051;-62
2023/06/03 07:35:54;;;;;;;1.08;0.60;;;;;;;;;;5104174;27;20051;-62
2023/06/03 07:38:39;;;;;;;2.53;0.80;;;;;;;;;;5109169;28;20051;-62
2023/06/03 07:41:06;;;;;;;0.80;0.50;;;;;;;;;;5097281;28;20102;-62
2023/06/03 07:43:34;;;;;;;1.13;0.57;;;;;;;;;;5106093;28;20118;-62
2023/06/03 07:46:04;;;;;;;1.15;0.60;;;;;;;;;;5103096;28;20420;-62
2023/06/03 07:48:31;;;;;;;1.00;0.60;;;;;;;;;;5109475;28;20056;-62
2023/06/03 07:50:59;;;;;;;1.83;0.70;;;;;;;;;;5101196;28;20044;-62
2023/06/03 07:53:28;;;;;;;0.80;0.60;;;;;;;;;;5104142;28;20100;-62
2023/06/03 07:55:55;;;;;;;1.75;0.75;;;;;;;;;;5107981;28;20048;-62
2023/06/03 07:58:22;;;;;;;1.30;0.70;;;;;;;;;;5107676;28;20052;-62
2023/06/03 08:00:52;;;;;;;2.03;0.60;;;;;;;;;;5096196;28;20390;-62
2023/06/03 08:03:22;;;;;;;0.68;0.55;;;;;;;;;;5103542;27;20458;-62
2023/06/03 08:05:50;;;;;;;0.85;0.60;;;;;;;;;;5096162;28;20509;-62
2023/06/03 08:08:19;;;;;;;1.38;0.75;;;;;;;;;;5109589;28;20112;-63
2023/06/03 08:10:48;;;;;;;0.65;0.52;;;;;;;;;;5088731;28;20052;-62
2023/06/03 08:13:16;;;;;;;0.85;0.70;;;;;;;;;;5107907;28;20050;-63
2023/06/03 08:15:44;;;;;;;2.30;1.00;;;;;;;;;;5089305;28;20048;-62
2023/06/03 08:18:13;;;;;;;1.55;0.65;;;;;;;;;;5106959;28;20067;-62
2023/06/03 08:20:40;;;;;;;1.02;0.60;;;;;;;;;;5104462;28;20609;-62
2023/06/03 08:23:07;;;;;;;0.70;0.60;;;;;;;;;;5107301;28;20936;-62
2023/06/03 08:25:36;;;;;;;2.05;0.60;;;;;;;;;;5105581;28;20043;-63
2023/06/03 08:28:04;;;;;;;2.00;0.70;;;;;;;;;;5107069;28;20174;-63
2023/06/03 08:30:32;;;;;;;1.40;0.73;;;;;;;;;;5101698;28;20044;-62
2023/06/03 08:32:59;;;;;;;0.90;0.52;;;;;;;;;;5102566;28;20040;-62
2023/06/03 08:35:26;;;;;;;3.15;1.10;;;;;;;;;;5108068;28;20086;-63
2023/06/03 08:37:54;;;;;;;1.38;0.50;;;;;;;;;;5107190;28;20060;-63
2023/06/03 08:40:25;;;;;;;0.90;0.55;;;;;;;;;;5110107;28;20052;-62
2023/06/03 08:43:00;;;;;;;0.95;0.55;;;;;;;;;;5106805;28;20044;-62
2023/06/03 08:45:32;;;;;;;0.70;0.50;;;;;;;;;;5088511;28;20047;-63
2023/06/03 08:48:07;;;;;;;1.90;0.70;;;;;;;;;;5106248;28;20062;-62
2023/06/03 08:50:35;;;;;;;1.88;0.45;;;;;;;;;;5107919;28;20051;-62
2023/06/03 08:53:08;;;;;;;3.88;0.60;;;;;;;;;;5107196;28;20056;-63
2023/06/03 08:55:36;;;;;;;0.98;0.52;;;;;;;;;;5106514;28;20123;-62
2023/06/03 08:58:05;;;;;;;1.85;0.57;;;;;;;;;;5108282;28;20059;-63
2023/06/03 09:00:34;;;;;;;0.95;0.47;;;;;;;;;;5100795;28;20094;-62
2023/06/03 09:03:02;;;;;;;0.82;0.70;;;;;;;;;;5111020;28;20051;-62
2023/06/03 09:05:30;;;;;;;1.33;0.60;;;;;;;;;;5093883;28;20433;-62
2023/06/03 09:07:58;;;;;;;1.88;0.80;;;;;;;;;;5091750;28;20066;-62
2023/06/03 09:10:26;;;;;;;2.83;0.50;;;;;;;;;;5108268;28;20071;-63
2023/06/03 09:12:54;;;;;;;0.90;0.50;;;;;;;;;;5107169;27;20100;-63
2023/06/03 09:15:23;;;;;;;2.05;0.60;;;;;;;;;;5111779;28;20108;-63
2023/06/03 09:17:52;;;;;;;1.08;0.60;;;;;;;;;;5108076;28;20044;-63
2023/06/03 09:20:19;;;;;;;1.27;0.70;;;;;;;;;;5111678;28;20044;-63
2023/06/03 09:22:47;;;;;;;0.77;0.43;;;;;;;;;;5108048;27;20051;-63
2023/06/03 09:25:14;;;;;;;1.42;0.90;;;;;;;;;;5112587;28;20071;-62
2023/06/03 09:27:42;;;;;;;0.65;0.40;;;;;;;;;;5110507;27;20044;-63
2023/06/03 09:30:10;;;;;;;0.60;0.50;;;;;;;;;;5113025;28;20043;-63
2023/06/03 09:32:38;;;;;;;0.90;0.47;;;;;;;;;;5106356;28;20044;-63
2023/06/03 09:35:07;;;;;;;0.80;0.50;;;;;;;;;;5099262;28;20051;-62
2023/06/03 09:37:35;;;;;;;0.65;0.43;;;;;;;;;;5105383;28;20514;-63
2023/06/03 09:40:03;;;;;;;1.15;0.65;;;;;;;;;;5105902;28;20052;-63
2023/06/03 09:42:43;;;;;;;0.90;0.70;;;;;;;;;;5109856;28;20055;-63
2023/06/03 09:45:23;;;;;;;0.70;0.60;;;;;;;;;;5111249;28;20055;-61
2023/06/03 09:47:50;;;;;;;0.50;0.50;;;;;;;;;;5108473;28;20151;-61
2023/06/03 09:50:19;;;;;;;1.17;0.60;;;;;;;;;;5107425;28;20534;-61
2023/06/03 09:52:47;;;;;;;1.45;0.70;;;;;;;;;;5092973;28;20047;-61
2023/06/03 09:55:15;;;;;;;1.33;0.70;;;;;;;;;;5107899;28;20051;-61
2023/06/03 09:57:42;;;;;;;0.95;0.60;;;;;;;;;;5111218;27;20047;-61
2023/06/03 10:00:11;;;;;;;0.70;0.60;;;;;;;;;;5104650;28;20063;-61
2023/06/03 10:02:39;;;;;;;0.73;0.50;;;;;;;;;;5104251;28;20046;-60
2023/06/03 10:05:06;;;;;;;0.70;0.50;;;;;;;;;;5110077;27;20043;-61
2023/06/03 10:07:35;;;;;;;2.38;0.60;;;;;;;;;;5110815;28;20039;-61
2023/06/03 10:10:08;;;;;;;1.38;0.70;;;;;;;;;;5102246;28;20051;-61
2023/06/03 10:12:35;;;;;;;0.90;0.50;;;;;;;;;;5108542;28;20047;-61
2023/06/03 10:15:02;;;;;;;2.17;0.65;;;;;;;;;;5106721;28;20054;-63
2023/06/03 10:17:29;;;;;;;1.08;0.88;;;;;;;;;;5111455;28;20043;-61
2023/06/03 10:19:56;;;;;;;2.30;0.65;;;;;;;;;;5107553;28;20047;-61
2023/06/03 10:22:26;;;;;;;1.20;0.70;;;;;;;;;;5112422;27;20047;-61
2023/06/03 10:24:55;;;;;;;0.75;0.55;;;;;;;;;;5111601;28;20056;-61
2023/06/03 10:27:23;;;;;;;2.47;0.60;;;;;;;;;;5108037;27;20039;-61
2023/06/03 10:29:53;;;;;;;0.75;0.47;;;;;;;;;;5109546;28;20130;-61
2023/06/03 10:32:22;;;;;;;1.10;0.60;;;;;;;;;;5095430;28;20503;-61
2023/06/03 10:34:50;;;;;;;0.95;0.60;;;;;;;;;;5111042;28;20979;-62
2023/06/03 10:37:18;;;;;;;1.27;0.75;;;;;;;;;;5103696;28;20054;-61
2023/06/03 10:39:45;;;;;;;1.70;0.70;;;;;;;;;;5104956;28;20083;-61
2023/06/03 10:42:14;;;;;;;1.85;0.60;;;;;;;;;;5109464;28;20066;-62
2023/06/03 10:44:42;;;;;;;1.13;0.60;;;;;;;;;;5109765;28;20055;-61
2023/06/03 10:47:11;;;;;;;0.75;0.52;;;;;;;;;;5109991;28;20047;-61
2023/06/03 10:49:40;;;;;;;0.63;0.60;;;;;;;;;;5086966;28;20044;-61
2023/06/03 10:52:18;;;;;;;0.70;0.60;;;;;;;;;;5090682;28;20122;-61
2023/06/03 10:54:49;;;;;;;0.63;0.50;;;;;;;;;;5106778;28;20074;-62
2023/06/03 10:57:20;;;;;;;0.65;0.63;;;;;;;;;;5108742;27;20051;-62
2023/06/03 10:59:48;;;;;;;1.25;0.60;;;;;;;;;;5102506;28;20129;-62
2023/06/03 11:02:16;;;;;;;0.75;0.60;;;;;;;;;;5109062;28;20046;-61
2023/06/03 11:04:43;;;;;;;0.82;0.60;;;;;;;;;;5109305;28;20047;-61
2023/06/03 11:07:25;;;;;;;0.93;0.63;;;;;;;;;;5111171;28;20051;-62
2023/06/03 11:09:54;;;;;;;0.90;0.73;;;;;;;;;;5105303;28;20043;-62
2023/06/03 11:12:22;;;;;;;0.70;0.70;;;;;;;;;;5096801;28;20043;-62
2023/06/03 11:14:53;;;;;;;0.63;0.50;;;;;;;;;;5104335;28;20167;-62
2023/06/03 11:17:21;;;;;;;2.88;0.60;;;;;;;;;;5103286;28;20491;-62
2023/06/03 11:19:50;;;;;;;0.88;0.70;;;;;;;;;;5106007;28;20070;-63
2023/06/03 11:22:37;;;;;;;1.25;0.80;;;;;;;;;;5096105;28;20040;-62
2023/06/03 11:25:05;;;;;;;1.58;0.80;;;;;;;;;;5108704;28;20040;-62
2023/06/03 11:27:33;;;;;;;0.70;0.60;;;;;;;;;;5104625;28;20047;-62
2023/06/03 11:30:01;;;;;;;0.65;0.65;;;;;;;;;;5105307;28;20518;-62
2023/06/03 11:32:30;;;;;;;1.48;0.82;;;;;;;;;;5108626;28;20071;-63
2023/06/03 11:35:16;;;;;;;0.60;0.60;;;;;;;;;;5101541;28;20047;-62
2023/06/03 11:37:53;;;;;;;0.70;0.60;;;;;;;;;;5107441;28;20051;-62
2023/06/03 11:40:21;;;;;;;2.03;0.88;;;;;;;;;;5108302;28;20070;-62
2023/06/03 11:43:08;;;;;;;2.42;0.90;;;;;;;;;;5107823;28;20105;-62
2023/06/03 11:45:37;;;;;;;1.25;0.75;;;;;;;;;;5106216;28;20130;-62
2023/06/03 11:48:07;;;;;;;0.85;0.85;;;;;;;;;;5106384;28;20185;-62
2023/06/03 11:50:35;;;;;;;1.27;0.88;;;;;;;;;;5106724;27;20123;-62
2023/06/03 11:53:02;;;;;;;1.70;0.90;;;;;;;;;;5099253;28;20056;-63
2023/06/03 11:55:30;;;;;;;1.65;0.90;;;;;;;;;;5107689;28;20138;-62
2023/06/03 11:58:08;;;;;;;0.82;0.80;;;;;;;;;;5109497;27;20057;-62
2023/06/03 12:00:37;;;;;;;1.42;0.93;;;;;;;;;;5108211;28;20051;-62
2023/06/03 12:03:04;;;;;;;0.88;0.65;;;;;;;;;;5109773;28;20113;-62
2023/06/03 12:05:31;;;;;;;0.85;0.60;;;;;;;;;;5106727;28;20046;-62
2023/06/03 12:08:00;;;;;;;1.08;0.70;;;;;;;;;;5108593;28;20052;-62
2023/06/03 12:10:27;;;;;;;2.05;0.88;;;;;;;;;;5091329;28;20402;-62
2023/06/03 12:12:55;;;;;;;2.33;1.10;;;;;;;;;;5105919;28;20462;-62
2023/06/03 12:15:23;;;;;;;1.38;0.80;;;;;;;;;;5107127;28;20059;-62
2023/06/03 12:17:52;;;;;;;0.90;0.80;;;;;;;;;;5095881;28;20066;-62
2023/06/03 12:20:26;;;;;;;0.98;0.88;;;;;;;;;;5107375;28;20036;-63
2023/06/03 12:22:59;;;;;;;1.50;1.27;;;;;;;;;;5107267;28;20040;-62
2023/06/03 12:25:27;;;;;;;1.00;0.90;;;;;;;;;;5103680;28;20157;-62
2023/06/03 12:27:54;;;;;;;1.25;1.10;;;;;;;;;;5109004;28;20044;-62
2023/06/03 12:30:31;;;;;;;1.05;0.98;;;;;;;;;;5085795;28;20056;-63
2023/06/03 12:33:00;;;;;;;2.25;1.25;;;;;;;;;;5102091;28;20179;-63
2023/06/03 12:35:28;;;;;;;1.42;0.90;;;;;;;;;;5098707;28;20039;-62
2023/06/03 12:38:05;;;;;;;1.15;1.02;;;;;;;;;;5095915;28;20162;-63
2023/06/03 12:40:32;;;;;;;1.80;1.08;;;;;;;;;;5104962;28;20058;-63
2023/06/03 12:43:01;;;;;;;1.70;1.20;;;;;;;;;;5105249;28;20104;-63
2023/06/03 12:45:28;;;;;;;1.35;0.90;;;;;;;;;;5109088;28;20047;-63
2023/06/03 12:47:56;;;;;;;1.15;1.00;;;;;;;;;;5104736;28;20098;-62
2023/06/03 12:50:32;;;;;;;4.20;1.10;;;;;;;;;;5108265;28;20475;-63
2023/06/03 12:53:13;;;;;;;2.53;1.27;;;;;;;;;;5105871;28;20475;-63
2023/06/03 12:55:40;;;;;;;1.92;0.90;;;;;;;;;;5106537;28;20078;-63
2023/06/03 12:58:07;;;;;;;2.65;1.15;;;;;;;;;;5106939;28;20047;-63
2023/06/03 13:00:34;;;;;;;1.20;1.10;;;;;;;;;;5103878;28;20047;-63
2023/06/03 13:03:01;;;;;;;1.10;0.90;;;;;;;;;;5109249;28;20050;-63
2023/06/03 13:05:30;;;;;;;1.30;1.20;;;;;;;;;;5107111;28;20091;-63
2023/06/03 13:07:58;;;;;;;1.55;1.17;;;;;;;;;;5105086;28;20498;-63
2023/06/03 13:10:25;;;;;;;1.88;1.10;;;;;;;;;;5107708;28;20048;-63
2023/06/03 13:12:52;;;;;;;2.60;1.20;;;;;;;;;;5105897;28;20056;-63
2023/06/03 13:15:19;;;;;;;1.27;1.00;;;;;;;;;;5104135;28;20043;-63
2023/06/03 13:17:47;;;;;;;1.40;1.00;;;;;;;;;;5103089;28;20083;-63
2023/06/03 13:20:15;;;;;;;1.02;0.90;;;;;;;;;;5104338;28;20164;-63
2023/06/03 13:22:44;;;;;;;1.05;1.00;;;;;;;;;;5089171;28;20048;-63
2023/06/03 13:25:11;;;;;;;4.40;1.00;;;;;;;;;;5097829;28;20071;-63
2023/06/03 13:27:41;;;;;;;1.08;0.98;;;;;;;;;;5108505;28;20410;-63
2023/06/03 13:30:08;;;;;;;1.75;1.02;;;;;;;;;;5110180;28;20052;-64
2023/06/03 13:32:36;;;;;;;3.30;1.00;;;;;;;;;;5101608;28;20411;-63
2023/06/03 13:35:03;;;;;;;1.10;0.80;;;;;;;;;;5103974;28;20409;-63
2023/06/03 13:37:30;;;;;;;1.02;0.93;;;;;;;;;;5105953;28;20557;-63
2023/06/03 13:39:59;;;;;;;3.10;1.00;;;;;;;;;;5086201;28;20047;-63
2023/06/03 13:42:26;;;;;;;1.52;1.17;;;;;;;;;;5085603;28;20055;-64
2023/06/03 13:44:53;;;;;;;1.35;1.02;;;;;;;;;;5101285;28;20071;-63
2023/06/03 13:47:21;;;;;;;1.40;1.27;;;;;;;;;;5100154;28;20055;-63
2023/06/03 13:49:48;;;;;;;1.42;1.10;;;;;;;;;;5100356;28;20071;-63
2023/06/03 13:52:15;;;;;;;1.20;1.10;;;;;;;;;;5111185;28;20051;-63
2023/06/03 13:54:42;;;;;;;1.65;1.23;;;;;;;;;;5103781;28;20390;-63
2023/06/03 13:57:13;;;;;;;1.00;1.00;;;;;;;;;;5111922;28;20043;-64
2023/06/03 13:59:40;;;;;;;1.48;1.15;;;;;;;;;;5109519;28;20079;-63
2023/06/03 14:02:10;;;;;;;2.15;1.40;;;;;;;;;;5107489;28;20136;-63
2023/06/03 14:04:37;;;;;;;1.10;1.00;;;;;;;;;;5096493;28;20060;-63
2023/06/03 14:07:05;;;;;;;1.42;1.00;;;;;;;;;;5108779;28;20048;-63
2023/06/03 14:09:32;;;;;;;1.30;1.20;;;;;;;;;;5112741;28;20050;-63
2023/06/03 14:12:00;;;;;;;1.63;1.00;;;;;;;;;;5109310;28;20071;-63
2023/06/03 14:14:29;;;;;;;1.40;1.00;;;;;;;;;;5110637;28;20161;-63
2023/06/03 14:16:56;;;;;;;1.00;0.90;;;;;;;;;;5109554;28;20044;-63
2023/06/03 14:19:23;;;;;;;1.50;1.20;;;;;;;;;;5107507;28;20066;-63
2023/06/03 14:21:50;;;;;;;1.55;1.20;;;;;;;;;;5110977;28;20044;-63
2023/06/03 14:24:18;;;;;;;1.35;1.17;;;;;;;;;;5109993;28;20482;-63
2023/06/03 14:26:45;;;;;;;1.30;1.20;;;;;;;;;;5109114;28;20077;-63
2023/06/03 14:29:12;;;;;;;1.50;1.30;;;;;;;;;;5112289;28;20081;-63
2023/06/03 14:31:41;;;;;;;1.85;1.58;;;;;;;;;;5109991;28;20051;-63
2023/06/03 14:34:08;;;;;;;1.40;1.30;;;;;;;;;;5108698;27;20040;-63
2023/06/03 14:36:37;;;;;;;1.30;1.20;;;;;;;;;;5102268;28;20040;-63
2023/06/03 14:39:05;;;;;;;1.83;1.50;;;;;;;;;;5110472;27;20048;-63
2023/06/03 14:41:32;;;;;;;1.63;1.52;;;;;;;;;;5110792;28;20039;-64
2023/06/03 14:44:00;;;;;;;1.50;1.20;;;;;;;;;;5110041;28;20050;-63
2023/06/03 14:46:27;;;;;;;1.70;1.17;;;;;;;;;;5094403;28;20059;-63
2023/06/03 14:48:56;;;;;;;1.58;1.40;;;;;;;;;;5107176;28;20047;-63
2023/06/03 14:51:23;;;;;;;1.75;1.50;;;;;;;;;;5106469;28;20044;-63